Time;durP1;ratioP1;P1;durP2;ratioP2;P2;SDS_P1;SDS_P2;PMS_P1;PMS_P2;Temp;Humidity;BMP_temperature;BMP_pressure;BME280_temperature;BME280_humidity;BME280_pressure;Samples;Min_cycle;Max_cycle;Signal;HPM_P1;HPM_P2
2021/08/26 00:01:01;;;;;;;2.15;0.82;;;13.40;99.90;;;;;;5103710;28;20071;-64
2021/08/26 00:06:18;;;;;;;0.73;0.73;;;13.50;99.90;;;;;;5103801;28;20531;-64
2021/08/26 00:08:45;;;;;;;0.57;0.50;;;13.50;99.90;;;;;;5104409;28;20044;-64
2021/08/26 00:11:12;;;;;;;1.17;0.50;;;13.50;99.90;;;;;;5104014;28;20036;-63
2021/08/26 00:13:39;;;;;;;1.00;0.60;;;13.40;99.90;;;;;;5097713;28;20044;-64
2021/08/26 00:16:05;;;;;;;0.60;0.40;;;13.40;99.90;;;;;;5091209;28;20044;-64
2021/08/26 00:18:30;;;;;;;;;;;13.40;99.90;;;;;;5085469;28;20043;-64
2021/08/26 00:20:56;;;;;;;1.63;0.57;;;13.40;99.90;;;;;;5090310;28;19923;-64
2021/08/26 00:23:22;;;;;;;;;;;13.50;99.90;;;;;;5090216;28;20397;-64
2021/08/26 00:25:49;;;;;;;0.28;0.28;;;13.50;99.90;;;;;;5081660;28;20395;-64
2021/08/26 00:28:14;;;;;;;0.68;0.50;;;13.40;99.90;;;;;;5081514;28;20060;-64
2021/08/26 00:30:40;;;;;;;;;;;13.40;99.90;;;;;;5089985;28;20071;-64
2021/08/26 00:33:05;;;;;;;0.45;0.30;;;13.50;99.90;;;;;;5089955;28;20071;-64
2021/08/26 00:35:31;;;;;;;;;;;13.50;99.90;;;;;;5090011;28;20067;-64
2021/08/26 00:37:56;;;;;;;1.15;0.20;;;13.50;99.90;;;;;;5089702;28;19916;-64
2021/08/26 00:40:22;;;;;;;;;;;13.40;99.90;;;;;;5090209;28;20040;-64
2021/08/26 00:42:49;;;;;;;0.15;0.10;;;13.40;99.90;;;;;;5089511;28;19920;-64
2021/08/26 00:45:14;;;;;;;0.43;0.20;;;13.50;99.90;;;;;;5073162;28;20036;-64
2021/08/26 00:47:43;;;;;;;;;;;13.50;99.90;;;;;;5074109;28;20458;-64
2021/08/26 00:50:09;;;;;;;0.13;0.13;;;13.50;99.90;;;;;;5069019;28;20287;-64
2021/08/26 00:52:36;;;;;;;;;;;13.50;99.90;;;;;;5069051;28;20032;-64
2021/08/26 00:55:01;;;;;;;4.70;0.85;;;13.50;99.90;;;;;;5069155;28;19916;-64
2021/08/26 00:57:27;;;;;;;;;;;13.50;99.90;;;;;;5069557;28;20595;-63
2021/08/26 00:59:53;;;;;;;0.38;0.20;;;13.50;99.90;;;;;;5069020;28;19916;-64
2021/08/26 01:02:53;;;;;;;0.93;0.25;;;13.50;99.90;;;;;;5068279;28;20045;-64
2021/08/26 01:05:35;;;;;;;0.13;0.10;;;13.40;99.90;;;;;;5068805;28;20106;-63
2021/08/26 01:08:11;;;;;;;1.55;0.20;;;13.40;99.90;;;;;;5077660;28;20503;-64
2021/08/26 01:10:40;;;;;;;0.35;0.30;;;13.30;99.90;;;;;;5068809;28;20098;-64
2021/08/26 01:13:08;;;;;;;1.17;0.28;;;13.40;99.90;;;;;;5068433;28;20074;-64
2021/08/26 01:15:34;;;;;;;0.50;0.40;;;13.40;99.90;;;;;;5074229;28;20036;-64
2021/08/26 01:18:00;;;;;;;;;;;13.40;99.90;;;;;;5080284;28;20040;-63
2021/08/26 01:20:25;;;;;;;2.08;0.65;;;13.40;99.90;;;;;;5088311;28;19968;-64
2021/08/26 01:22:51;;;;;;;;;;;13.30;99.90;;;;;;5089427;28;20042;-64
2021/08/26 01:25:19;;;;;;;0.63;0.50;;;13.30;99.90;;;;;;5076469;28;20380;-64
2021/08/26 01:28:04;;;;;;;0.47;0.43;;;13.20;99.90;;;;;;5068429;28;20070;-63
2021/08/26 01:30:33;;;;;;;0.32;0.32;;;13.30;99.90;;;;;;5067383;28;20043;-64
2021/08/26 01:33:00;;;;;;;1.23;0.50;;;13.30;99.90;;;;;;5068133;28;20048;-64
2021/08/26 01:35:27;;;;;;;0.93;0.60;;;13.30;99.90;;;;;;5068730;28;20041;-64
2021/08/26 01:37:53;;;;;;;0.90;0.70;;;13.30;99.90;;;;;;5068279;28;20037;-64
2021/08/26 01:40:33;;;;;;;0.47;0.40;;;13.20;99.90;;;;;;5069186;28;20041;-64
2021/08/26 01:43:02;;;;;;;4.55;0.70;;;13.20;99.90;;;;;;5068888;28;20036;-64
2021/08/26 01:45:28;;;;;;;2.30;0.70;;;13.30;99.90;;;;;;5075515;28;20653;-64
2021/08/26 01:47:53;;;;;;;;;;;13.30;99.90;;;;;;5086202;28;20043;-64
2021/08/26 01:50:19;;;;;;;2.50;0.50;;;13.30;99.90;;;;;;5088005;28;20010;-63
2021/08/26 01:52:44;;;;;;;;;;;13.40;99.90;;;;;;5088839;28;20126;-63
2021/08/26 01:55:10;;;;;;;0.88;0.57;;;13.40;99.90;;;;;;5089066;28;20058;-63
2021/08/26 01:57:35;;;;;;;;;;;13.20;99.90;;;;;;5084540;28;20039;-64
2021/08/26 02:00:07;;;;;;;1.63;0.90;;;13.10;99.90;;;;;;5067831;28;20355;-63
2021/08/26 02:02:32;;;;;;;1.17;0.60;;;12.90;99.90;;;;;;5066896;28;20043;-64
2021/08/26 02:04:58;;;;;;;;;;;12.80;99.90;;;;;;5067970;28;20033;-64
2021/08/26 02:07:23;;;;;;;2.35;0.60;;;12.90;99.90;;;;;;5067941;28;19974;-63
2021/08/26 02:09:49;;;;;;;;;;;12.80;99.90;;;;;;5067725;28;20029;-63
2021/08/26 02:12:15;;;;;;;2.17;0.95;;;12.70;99.90;;;;;;5077077;28;19970;-63
2021/08/26 02:14:40;;;;;;;1.20;0.73;;;12.70;99.90;;;;;;5074580;28;20132;-63
2021/08/26 02:17:06;;;;;;;;;;;12.80;99.90;;;;;;5069032;28;20695;-64
2021/08/26 02:19:32;;;;;;;1.15;0.70;;;12.70;99.90;;;;;;5067108;28;20351;-64
2021/08/26 02:21:58;;;;;;;4.43;1.20;;;12.60;99.90;;;;;;5076897;28;20040;-64
2021/08/26 02:24:23;;;;;;;;;;;12.60;99.90;;;;;;5083882;28;20036;-64
2021/08/26 02:26:49;;;;;;;2.08;1.30;;;12.50;99.90;;;;;;5075831;28;19931;-64
2021/08/26 02:29:14;;;;;;;;;;;12.40;99.90;;;;;;5084846;28;20151;-64
2021/08/26 02:31:40;;;;;;;3.90;1.52;;;12.40;99.90;;;;;;5074993;28;19924;-64
2021/08/26 02:34:06;;;;;;;;;;;12.40;99.90;;;;;;5086864;28;20059;-63
2021/08/26 02:36:31;;;;;;;4.70;1.88;;;12.40;99.90;;;;;;5087809;28;20014;-63
2021/08/26 02:38:57;;;;;;;;;;;12.40;99.90;;;;;;5087377;28;20039;-64
2021/08/26 02:41:22;;;;;;;5.82;2.28;;;12.40;99.90;;;;;;5087572;28;19920;-63
2021/08/26 02:43:48;;;;;;;;;;;12.30;99.90;;;;;;5080442;28;20045;-64
2021/08/26 02:46:13;;;;;;;5.88;2.40;;;12.40;99.90;;;;;;5074677;28;19978;-64
2021/08/26 02:48:39;;;;;;;;;;;12.40;99.90;;;;;;5066313;28;20051;-64
2021/08/26 02:51:04;;;;;;;6.65;2.70;;;12.40;99.90;;;;;;5067038;28;20324;-64
2021/08/26 02:53:30;;;;;;;;;;;12.40;99.90;;;;;;5068140;28;20033;-64
2021/08/26 02:55:57;;;;;;;8.38;4.15;;;12.30;99.90;;;;;;5067251;28;19948;-64
2021/08/26 02:58:26;;;;;;;11.20;4.78;;;12.30;99.90;;;;;;5067221;28;20033;-64
2021/08/26 03:00:52;;;;;;;11.30;3.95;;;12.30;99.90;;;;;;5066627;28;20033;-64
2021/08/26 03:03:17;;;;;;;;;;;12.20;99.90;;;;;;5067523;28;20029;-64
2021/08/26 03:05:43;;;;;;;14.10;3.75;;;12.30;99.90;;;;;;5066702;28;19924;-64
2021/08/26 03:08:08;;;;;;;;;;;12.20;99.90;;;;;;5067429;28;20045;-64
2021/08/26 03:10:37;;;;;;;12.38;4.65;;;12.20;99.90;;;;;;5067166;28;19912;-64
2021/08/26 03:13:03;;;;;;;17.58;5.50;;;12.20;99.90;;;;;;5067198;28;20033;-63
2021/08/26 03:15:28;;;;;;;;;;;12.20;99.90;;;;;;5073054;28;20101;-64
2021/08/26 03:17:54;;;;;;;13.73;5.07;;;12.20;99.90;;;;;;5071363;28;19920;-65
2021/08/26 03:20:20;;;;;;;;;;;12.20;99.90;;;;;;5087436;28;20040;-65
2021/08/26 03:22:47;;;;;;;11.40;4.72;;;12.20;99.90;;;;;;5087745;28;19920;-65
2021/08/26 03:25:13;;;;;;;12.75;4.60;;;12.20;99.90;;;;;;5076150;28;20042;-65
2021/08/26 03:27:38;;;;;;;;;;;12.20;99.90;;;;;;5067470;28;20044;-65
2021/08/26 03:30:05;;;;;;;15.98;5.15;;;12.20;99.90;;;;;;5066724;28;19928;-65
2021/08/26 03:32:31;;;;;;;17.13;4.15;;;12.20;99.90;;;;;;5066608;28;20040;-65
2021/08/26 03:34:56;;;;;;;;;;;12.20;99.90;;;;;;5067916;28;20395;-65
2021/08/26 03:37:22;;;;;;;10.40;4.30;;;12.20;99.90;;;;;;5066543;28;19916;-65
2021/08/26 03:39:47;;;;;;;;;;;12.20;99.90;;;;;;5067082;28;20048;-64
2021/08/26 03:42:13;;;;;;;11.52;3.67;;;12.20;99.90;;;;;;5065700;28;20419;-65
2021/08/26 03:44:38;;;;;;;;;;;12.10;99.90;;;;;;5074062;28;20036;-64
2021/08/26 03:47:04;;;;;;;19.05;4.95;;;12.10;99.90;;;;;;5077979;28;19920;-65
2021/08/26 03:49:29;;;;;;;;;;;12.20;99.90;;;;;;5085204;28;20048;-64
2021/08/26 03:51:56;;;;;;;14.52;4.55;;;12.20;99.90;;;;;;5066271;28;19960;-65
2021/08/26 03:54:22;;;;;;;12.95;3.85;;;12.20;99.90;;;;;;5074393;28;20054;-65
2021/08/26 03:56:48;;;;;;;10.80;3.97;;;12.20;99.90;;;;;;5073113;28;20083;-65
2021/08/26 03:59:14;;;;;;;21.00;10.32;;;12.20;99.90;;;;;;5087010;28;20050;-65
2021/08/26 04:01:40;;;;;;;;;;;12.20;99.90;;;;;;5087793;28;20130;-65
2021/08/26 04:04:05;;;;;;;12.48;4.72;;;12.10;99.90;;;;;;5081769;28;19915;-65
2021/08/26 04:06:31;;;;;;;;;;;12.20;99.90;;;;;;5088913;28;20056;-65
2021/08/26 04:08:56;;;;;;;77.65;40.03;;;12.10;99.90;;;;;;5089768;28;19920;-64
2021/08/26 04:11:22;;;;;;;;;;;12.10;99.90;;;;;;5090789;28;20047;-66
2021/08/26 04:13:48;;;;;;;15.25;5.50;;;12.20;99.90;;;;;;5083746;28;19923;-66
2021/08/26 04:16:13;;;;;;;;;;;12.00;99.90;;;;;;5078760;28;20040;-66
2021/08/26 04:18:39;;;;;;;18.58;5.63;;;12.00;99.90;;;;;;5084404;28;19968;-67
2021/08/26 04:21:04;;;;;;;;;;;12.00;99.90;;;;;;5091020;28;20501;-67
2021/08/26 04:23:30;;;;;;;11.73;4.10;;;12.00;99.90;;;;;;5091349;28;19916;-66
2021/08/26 04:25:55;;;;;;;;;;;12.10;99.90;;;;;;5089335;28;20040;-66
2021/08/26 04:28:21;;;;;;;7.20;2.92;;;12.00;99.90;;;;;;5090798;28;19973;-67
2021/08/26 04:30:46;;;;;;;;;;;12.00;99.90;;;;;;5088704;28;20039;-64
2021/08/26 04:33:13;;;;;;;21.40;8.75;;;12.00;99.90;;;;;;5091675;28;19923;-66
2021/08/26 04:35:39;;;;;;;14.98;6.13;;;12.00;99.90;;;;;;5089440;28;20040;-67
2021/08/26 04:38:04;;;;;;;;;;;12.00;99.90;;;;;;5090971;28;20652;-66
2021/08/26 04:40:30;;;;;;;9.52;4.47;;;12.00;99.90;;;;;;5091578;28;19919;-66
2021/08/26 04:42:55;;;;;;;;;;;12.00;99.90;;;;;;5091055;28;20117;-65
2021/08/26 04:45:21;;;;;;;6.32;3.42;;;12.00;99.90;;;;;;5073913;28;19919;-66
2021/08/26 04:47:47;;;;;;;;;;;12.00;99.90;;;;;;5072423;28;20093;-66
2021/08/26 04:50:12;;;;;;;18.02;4.65;;;12.00;99.90;;;;;;5067737;28;20127;-65
2021/08/26 04:52:38;;;;;;;;;;;12.00;99.90;;;;;;5067119;28;20040;-65
2021/08/26 04:55:04;;;;;;;11.00;4.45;;;11.90;99.90;;;;;;5069555;28;19932;-65
2021/08/26 04:57:29;;;;;;;7.10;3.70;;;12.00;99.90;;;;;;5069488;28;20045;-65
2021/08/26 04:59:55;;;;;;;;;;;11.90;99.90;;;;;;5069513;28;20086;-67
2021/08/26 05:02:23;;;;;;;16.00;4.60;;;11.90;99.90;;;;;;5083857;28;19938;-66
2021/08/26 05:04:49;;;;;;;11.68;4.85;;;12.00;99.90;;;;;;5089729;28;20035;-66
2021/08/26 05:07:15;;;;;;;;;;;11.90;99.90;;;;;;5089347;28;20404;-65
2021/08/26 05:09:41;;;;;;;12.77;3.60;;;11.90;99.90;;;;;;5089416;28;20354;-66
2021/08/26 05:12:08;;;;;;;;;;;12.00;99.90;;;;;;5082489;28;20052;-65
2021/08/26 05:14:34;;;;;;;11.65;4.45;;;12.00;99.90;;;;;;5074337;28;20358;-65
2021/08/26 05:16:59;;;;;;;;;;;12.00;99.90;;;;;;5078230;28;20040;-65
2021/08/26 05:19:25;;;;;;;18.30;7.45;;;12.00;99.90;;;;;;5089010;28;20004;-66
2021/08/26 05:21:51;;;;;;;14.02;5.05;;;12.00;99.90;;;;;;5089247;28;20078;-65
2021/08/26 05:24:17;;;;;;;;;;;12.00;99.90;;;;;;5089523;28;20072;-65
2021/08/26 05:26:43;;;;;;;10.98;4.15;;;11.90;99.90;;;;;;5088858;28;19927;-64
2021/08/26 05:29:09;;;;;;;10.52;3.63;;;11.90;99.90;;;;;;5088898;28;20047;-64
2021/08/26 05:31:34;;;;;;;;;;;12.00;99.90;;;;;;5089038;28;20081;-64
2021/08/26 05:34:00;;;;;;;11.52;3.70;;;12.00;99.90;;;;;;5088936;28;19916;-67
2021/08/26 05:36:25;;;;;;;;;;;12.00;99.90;;;;;;5087219;28;20048;-67
2021/08/26 05:38:51;;;;;;;8.05;2.75;;;12.00;99.90;;;;;;5088961;28;19920;-68
2021/08/26 05:41:16;;;;;;;;;;;12.10;99.90;;;;;;5089172;28;20031;-67
2021/08/26 05:43:42;;;;;;;8.25;2.58;;;12.10;99.90;;;;;;5083919;28;19924;-66
2021/08/26 05:46:07;;;;;;;;;;;12.00;99.90;;;;;;5077077;28;20563;-66
2021/08/26 05:48:34;;;;;;;7.78;2.50;;;12.10;99.90;;;;;;5071924;28;19916;-66
2021/08/26 05:51:00;;;;;;;6.82;2.38;;;12.00;99.90;;;;;;5069681;28;20036;-69
2021/08/26 05:53:26;;;;;;;5.43;2.10;;;12.00;99.90;;;;;;5069723;28;20127;-68
2021/08/26 05:55:52;;;;;;;10.02;2.40;;;12.10;99.90;;;;;;5070210;28;20052;-65
2021/08/26 05:58:17;;;;;;;;;;;12.00;99.90;;;;;;5070686;28;20408;-66
2021/08/26 06:00:43;;;;;;;8.65;2.70;;;12.00;99.90;;;;;;5051592;28;20361;-67
2021/08/26 06:03:09;;;;;;;;;;;12.00;99.90;;;;;;5065704;28;20049;-66
2021/08/26 06:05:34;;;;;;;5.20;1.85;;;12.00;99.90;;;;;;5067646;28;19970;-65
2021/08/26 06:08:00;;;;;;;;;;;12.00;99.90;;;;;;5071853;28;20071;-65
2021/08/26 06:10:25;;;;;;;8.18;2.42;;;12.00;99.90;;;;;;5078183;28;20613;-64
2021/08/26 06:12:52;;;;;;;;;;;12.10;99.90;;;;;;5077781;28;20044;-65
2021/08/26 06:15:17;;;;;;;8.75;2.33;;;12.20;99.90;;;;;;5078610;28;19916;-66
2021/08/26 06:17:43;;;;;;;;;;;12.20;99.90;;;;;;5080906;28;20040;-66
2021/08/26 06:20:12;;;;;;;10.52;2.92;;;12.20;99.90;;;;;;5072117;28;19928;-66
2021/08/26 06:22:38;;;;;;;6.97;2.42;;;12.30;99.90;;;;;;5076673;28;20127;-66
2021/08/26 06:25:04;;;;;;;15.00;5.70;;;12.40;99.90;;;;;;5074705;28;20052;-65
2021/08/26 06:27:30;;;;;;;13.55;3.95;;;12.40;99.90;;;;;;5085383;28;20047;-64
2021/08/26 06:29:56;;;;;;;;;;;12.50;99.90;;;;;;5079363;28;20120;-66
2021/08/26 06:32:21;;;;;;;9.50;3.25;;;12.40;99.90;;;;;;5077446;28;20027;-66
2021/08/26 06:34:47;;;;;;;;;;;12.30;99.90;;;;;;5061490;28;20514;-66
2021/08/26 06:37:13;;;;;;;15.50;4.53;;;12.40;99.90;;;;;;5075485;28;19926;-67
2021/08/26 06:39:39;;;;;;;10.23;3.78;;;12.40;99.90;;;;;;5078057;28;20032;-64
2021/08/26 06:42:04;;;;;;;;;;;12.30;99.90;;;;;;5078757;28;20028;-64
2021/08/26 06:44:30;;;;;;;13.85;2.85;;;12.40;99.90;;;;;;5063223;28;20414;-67
2021/08/26 06:46:56;;;;;;;;;;;12.40;99.90;;;;;;5078805;28;20060;-65
2021/08/26 06:49:23;;;;;;;12.63;3.40;;;12.40;99.90;;;;;;5079345;28;19920;-65
2021/08/26 06:51:50;;;;;;;13.57;3.33;;;12.40;99.90;;;;;;5077958;28;20189;-66
2021/08/26 06:54:16;;;;;;;21.02;9.77;;;12.50;99.90;;;;;;5068675;28;20480;-66
2021/08/26 06:56:41;;;;;;;;;;;12.40;99.90;;;;;;5076219;28;20032;-64
2021/08/26 06:59:07;;;;;;;11.18;3.88;;;12.50;99.90;;;;;;5079175;28;20339;-64
2021/08/26 07:01:33;;;;;;;;;;;12.50;99.90;;;;;;5088706;28;20048;-66
2021/08/26 07:03:59;;;;;;;9.73;3.78;;;12.60;99.90;;;;;;5087717;28;20550;-65
2021/08/26 07:06:26;;;;;;;6.60;2.90;;;12.60;99.90;;;;;;5088878;28;20507;-66
2021/08/26 07:08:52;;;;;;;10.88;2.42;;;12.60;99.90;;;;;;5088756;28;20535;-67
2021/08/26 07:11:18;;;;;;;13.70;3.85;;;12.50;99.90;;;;;;5090659;28;20051;-65
2021/08/26 07:13:44;;;;;;;;;;;12.50;99.90;;;;;;5090099;28;20055;-65
2021/08/26 07:16:10;;;;;;;7.85;2.88;;;12.40;99.90;;;;;;5070843;28;20003;-65
2021/08/26 07:18:35;;;;;;;;;;;12.40;99.90;;;;;;5081536;28;20047;-64
2021/08/26 07:21:01;;;;;;;15.60;4.05;;;12.40;99.90;;;;;;5086071;28;19951;-64
2021/08/26 07:23:26;;;;;;;;;;;12.40;99.90;;;;;;5075246;28;20135;-63
2021/08/26 07:25:52;;;;;;;10.95;2.63;;;12.50;99.90;;;;;;5069060;28;19927;-64
2021/08/26 07:28:17;;;;;;;;;;;12.50;99.90;;;;;;5091486;28;20037;-64
2021/08/26 07:30:43;;;;;;;14.30;2.97;;;12.60;99.90;;;;;;5084928;28;19916;-64
2021/08/26 07:33:08;;;;;;;;;;;12.70;99.90;;;;;;5073706;28;20044;-65
2021/08/26 07:35:34;;;;;;;9.85;2.83;;;12.70;99.90;;;;;;5074318;28;19975;-65
2021/08/26 07:38:00;;;;;;;;;;;12.70;99.90;;;;;;5073405;28;20089;-66
2021/08/26 07:40:25;;;;;;;12.05;3.05;;;12.70;99.90;;;;;;5073273;28;20297;-64
2021/08/26 07:42:51;;;;;;;;;;;12.70;99.90;;;;;;5074387;28;20039;-64
2021/08/26 07:45:17;;;;;;;10.60;2.72;;;12.70;99.90;;;;;;5068017;28;20277;-65
2021/08/26 07:47:42;;;;;;;;;;;12.80;99.90;;;;;;5068325;28;20044;-65
2021/08/26 07:50:09;;;;;;;7.55;2.28;;;12.90;99.90;;;;;;5071925;28;19920;-65
2021/08/26 07:52:34;;;;;;;12.80;3.10;;;12.90;99.90;;;;;;5070484;28;20108;-64
2021/08/26 07:55:02;;;;;;;;;;;12.90;99.90;;;;;;5074046;28;20032;-64
2021/08/26 07:57:28;;;;;;;16.70;3.10;;;12.90;99.90;;;;;;5091112;28;19916;-66
2021/08/26 07:59:54;;;;;;;12.98;3.35;;;12.90;99.90;;;;;;5089931;28;20040;-64
2021/08/26 08:02:20;;;;;;;;;;;12.80;99.90;;;;;;5074502;28;20039;-65
2021/08/26 08:04:45;;;;;;;7.65;2.30;;;12.90;99.90;;;;;;5086153;28;19924;-65
2021/08/26 08:07:11;;;;;;;;;;;12.90;99.90;;;;;;5077994;28;20518;-66
2021/08/26 08:09:36;;;;;;;11.88;2.53;;;12.90;99.90;;;;;;5083248;28;19915;-65
2021/08/26 08:12:02;;;;;;;;;;;13.00;99.90;;;;;;5080625;28;20068;-64
2021/08/26 08:14:29;;;;;;;8.57;2.22;;;12.90;99.90;;;;;;5077401;28;20011;-64
2021/08/26 08:16:56;;;;;;;14.70;3.67;;;13.20;99.90;;;;;;5084360;28;20043;-65
2021/08/26 08:19:22;;;;;;;3.42;1.73;;;13.70;99.90;;;;;;5071565;28;20048;-65
2021/08/26 08:21:48;;;;;;;10.57;2.90;;;14.80;99.90;;;;;;5075345;28;20500;-65
2021/08/26 08:24:13;;;;;;;;;;;15.10;99.90;;;;;;5082320;28;20032;-64
2021/08/26 08:26:39;;;;;;;7.65;2.60;;;14.90;99.90;;;;;;5075088;28;19963;-64
2021/08/26 08:29:05;;;;;;;;;;;14.60;99.90;;;;;;5083129;28;20117;-65
2021/08/26 08:31:31;;;;;;;8.77;3.95;;;14.50;99.90;;;;;;5090394;28;20286;-64
2021/08/26 08:33:56;;;;;;;;;;;14.40;99.90;;;;;;5092007;28;20032;-65
2021/08/26 08:36:22;;;;;;;10.18;2.80;;;14.10;99.90;;;;;;5088195;28;20004;-64
2021/08/26 08:38:48;;;;;;;;;;;14.00;99.90;;;;;;5070019;28;20051;-65
2021/08/26 08:41:18;;;;;;;13.40;3.03;;;14.30;99.90;;;;;;5069899;28;20585;-64
2021/08/26 08:43:44;;;;;;;9.07;2.13;;;14.80;99.90;;;;;;5087280;28;20096;-66
2021/08/26 08:46:10;;;;;;;;;;;14.80;99.90;;;;;;5081234;28;20036;-65
2021/08/26 08:48:39;;;;;;;6.68;2.15;;;14.80;99.90;;;;;;5074889;28;19917;-64
2021/08/26 08:51:06;;;;;;;5.57;2.47;;;14.80;99.90;;;;;;5079016;28;20041;-65
2021/08/26 08:53:32;;;;;;;11.52;2.45;;;14.90;99.90;;;;;;5084317;28;20044;-65
2021/08/26 08:55:57;;;;;;;;;;;14.80;99.90;;;;;;5074731;28;20412;-64
2021/08/26 08:58:23;;;;;;;9.70;2.70;;;14.70;99.90;;;;;;5069965;28;19926;-65
2021/08/26 09:00:49;;;;;;;;;;;14.60;99.90;;;;;;5069904;28;20068;-65
2021/08/26 09:03:14;;;;;;;12.45;3.38;;;14.50;99.90;;;;;;5070594;28;20535;-65
2021/08/26 09:05:51;;;;;;;;;;;14.40;99.90;;;;;;5070432;28;20052;-64
2021/08/26 09:08:17;;;;;;;8.00;3.05;;;14.30;99.90;;;;;;5070415;28;19916;-64
2021/08/26 09:10:43;;;;;;;;;;;14.30;99.90;;;;;;5071543;28;20092;-64
2021/08/26 09:13:10;;;;;;;8.18;2.92;;;14.30;99.90;;;;;;5070280;28;20023;-65
2021/08/26 09:15:43;;;;;;;6.90;2.45;;;14.40;99.90;;;;;;5077389;28;20044;-66
2021/08/26 09:18:14;;;;;;;14.05;3.33;;;14.40;99.90;;;;;;5079769;28;20595;-63
2021/08/26 09:20:58;;;;;;;18.40;3.55;;;14.40;99.90;;;;;;5078216;28;20115;-66
2021/08/26 09:23:27;;;;;;;11.35;2.58;;;14.20;99.90;;;;;;5090445;28;20075;-64
2021/08/26 09:25:54;;;;;;;8.13;2.25;;;14.10;99.90;;;;;;5090260;28;20052;-65
2021/08/26 09:28:32;;;;;;;8.13;2.88;;;14.10;99.90;;;;;;5089468;28;20445;-65
2021/08/26 09:31:19;;;;;;;9.38;2.40;;;14.10;99.90;;;;;;5080504;28;20047;-65
2021/08/26 09:33:56;;;;;;;14.40;2.65;;;14.10;99.90;;;;;;5074065;28;20101;-63
2021/08/26 09:36:37;;;;;;;9.63;2.72;;;14.20;99.90;;;;;;5080674;28;20797;-67
2021/08/26 09:39:08;;;;;;;11.90;2.83;;;14.20;99.90;;;;;;5069671;28;20048;-64
2021/08/26 09:41:40;;;;;;;12.15;2.92;;;14.20;99.90;;;;;;5069115;28;20492;-64
2021/08/26 09:44:07;;;;;;;7.93;2.97;;;14.20;99.90;;;;;;5072583;28;20050;-65
2021/08/26 09:46:33;;;;;;;8.40;2.90;;;14.10;99.90;;;;;;5073234;28;20053;-65
2021/08/26 09:49:03;;;;;;;;;;;14.10;99.90;;;;;;5078583;28;20048;-65
2021/08/26 09:51:29;;;;;;;10.23;3.90;;;14.10;99.90;;;;;;5067816;28;20126;-64
2021/08/26 09:53:54;;;;;;;;;;;14.00;99.90;;;;;;5085391;28;20139;-64
2021/08/26 09:56:20;;;;;;;6.60;2.83;;;14.00;99.90;;;;;;5069481;28;19923;-64
2021/08/26 09:58:51;;;;;;;;;;;13.90;99.90;;;;;;5069163;28;20042;-64
2021/08/26 10:01:23;;;;;;;15.13;3.15;;;13.80;99.90;;;;;;5083681;28;19919;-66
2021/08/26 10:03:50;;;;;;;12.75;3.67;;;13.70;99.90;;;;;;5073511;28;20040;-64
2021/08/26 10:06:18;;;;;;;9.57;3.22;;;13.80;99.90;;;;;;5078375;28;20065;-64
2021/08/26 10:08:47;;;;;;;9.32;2.60;;;13.90;99.90;;;;;;5080276;28;20043;-65
2021/08/26 10:11:19;;;;;;;6.68;2.83;;;13.90;99.90;;;;;;5077302;28;20041;-64
2021/08/26 10:13:48;;;;;;;11.55;3.58;;;14.00;99.90;;;;;;5068347;28;20044;-68
2021/08/26 10:16:14;;;;;;;10.18;2.35;;;14.00;99.90;;;;;;5091351;28;20045;-64
2021/08/26 10:18:40;;;;;;;;;;;14.00;99.90;;;;;;5080871;28;20039;-66
2021/08/26 10:21:09;;;;;;;8.32;3.47;;;14.10;99.90;;;;;;5067797;28;19988;-65
2021/08/26 10:23:43;;;;;;;13.05;3.35;;;14.10;99.90;;;;;;5065838;28;20551;-64
2021/08/26 10:26:17;;;;;;;8.20;2.67;;;14.10;99.90;;;;;;5079036;28;20792;-65
2021/08/26 10:28:44;;;;;;;11.65;3.28;;;14.20;99.90;;;;;;5067685;28;20044;-64
2021/08/26 10:31:30;;;;;;;10.05;3.15;;;14.20;99.90;;;;;;5067790;28;20032;-65
2021/08/26 10:34:19;;;;;;;8.45;2.88;;;14.30;99.90;;;;;;5084375;28;20040;-65
2021/08/26 10:37:16;;;;;;;11.35;2.88;;;14.40;99.90;;;;;;5071218;28;20054;-64
2021/08/26 10:39:42;;;;;;;11.10;3.95;;;14.50;99.90;;;;;;5068008;28;20491;-63
2021/08/26 10:42:17;;;;;;;11.98;2.88;;;14.50;99.90;;;;;;5075176;28;20464;-64
2021/08/26 10:45:08;;;;;;;9.65;2.25;;;14.60;99.90;;;;;;5073686;28;20083;-65
2021/08/26 10:47:49;;;;;;;11.27;3.20;;;14.60;99.90;;;;;;5072194;28;20048;-64
2021/08/26 10:50:31;;;;;;;6.93;2.65;;;14.60;99.90;;;;;;5074256;28;20032;-64
2021/08/26 10:53:06;;;;;;;6.15;2.60;;;14.70;99.90;;;;;;5067580;28;20523;-64
2021/08/26 10:55:50;;;;;;;10.95;2.63;;;14.90;99.90;;;;;;5068010;28;20032;-65
2021/08/26 10:58:25;;;;;;;10.57;3.00;;;14.90;99.90;;;;;;5067756;28;20116;-65
2021/08/26 11:01:01;;;;;;;9.98;2.88;;;14.90;99.90;;;;;;5071517;28;20063;-65
2021/08/26 11:03:45;;;;;;;11.68;2.50;;;14.90;99.90;;;;;;5068733;28;20045;-63
2021/08/26 11:06:19;;;;;;;10.90;2.72;;;14.90;99.90;;;;;;5071000;28;20036;-66
2021/08/26 11:08:47;;;;;;;10.00;2.60;;;14.90;99.90;;;;;;5068748;28;20044;-64
2021/08/26 11:11:30;;;;;;;14.65;3.17;;;14.90;99.90;;;;;;5070069;28;20040;-64
2021/08/26 11:14:02;;;;;;;6.03;2.50;;;14.80;99.90;;;;;;5070051;28;20047;-64
2021/08/26 11:16:27;;;;;;;12.85;2.97;;;15.00;99.90;;;;;;5069613;28;20110;-64
2021/08/26 11:19:05;;;;;;;;;;;15.30;99.90;;;;;;5067597;28;20404;-64
2021/08/26 11:21:43;;;;;;;7.85;2.55;;;15.50;99.90;;;;;;5070411;28;19920;-65
2021/08/26 11:24:20;;;;;;;7.78;2.80;;;15.50;99.90;;;;;;5067688;28;20492;-63
2021/08/26 11:26:56;;;;;;;9.77;2.83;;;15.50;99.90;;;;;;5067976;28;20131;-64
2021/08/26 11:29:25;;;;;;;12.35;3.17;;;15.30;99.90;;;;;;5071202;28;20198;-65
2021/08/26 11:31:53;;;;;;;10.38;3.25;;;15.00;99.90;;;;;;5075134;28;20048;-65
2021/08/26 11:34:44;;;;;;;9.77;2.50;;;15.00;99.90;;;;;;5067492;28;20036;-63
2021/08/26 11:37:22;;;;;;;8.20;2.30;;;15.30;99.90;;;;;;5066699;28;20045;-65
2021/08/26 11:39:52;;;;;;;9.98;2.72;;;15.40;99.90;;;;;;5066356;28;20052;-64
2021/08/26 11:42:18;;;;;;;11.18;3.10;;;15.40;99.90;;;;;;5071850;28;20032;-64
2021/08/26 11:44:44;;;;;;;;;;;15.40;99.90;;;;;;5069165;28;20047;-65
2021/08/26 11:47:10;;;;;;;8.07;2.67;;;15.40;99.90;;;;;;5068099;28;19920;-64
2021/08/26 11:49:37;;;;;;;;;;;15.50;99.90;;;;;;5073360;28;20043;-63
2021/08/26 11:52:12;;;;;;;7.05;2.55;;;15.60;99.90;;;;;;5065206;28;19924;-63
2021/08/26 11:54:40;;;;;;;5.65;2.00;;;15.90;99.90;;;;;;5075523;28;20052;-64
2021/08/26 11:57:09;;;;;;;7.40;2.22;;;15.90;99.90;;;;;;5068347;28;20070;-65
2021/08/26 11:59:40;;;;;;;10.40;4.20;;;15.90;99.90;;;;;;5066040;28;20056;-64
2021/08/26 12:02:22;;;;;;;6.28;2.47;;;15.90;99.90;;;;;;5073789;22;20044;-65
2021/08/26 12:04:51;;;;;;;5.82;2.40;;;16.10;99.90;;;;;;5042520;28;20547;-65
2021/08/26 12:07:29;;;;;;;4.28;2.03;;;16.30;99.90;;;;;;5045286;28;20187;-64
2021/08/26 12:09:56;;;;;;;9.88;2.25;;;16.30;99.90;;;;;;5042533;28;20420;-65
2021/08/26 12:12:22;;;;;;;8.40;2.00;;;16.40;99.90;;;;;;5028095;28;20585;-64
2021/08/26 12:14:48;;;;;;;;;;;16.60;99.90;;;;;;5047742;28;20116;-62
2021/08/26 12:17:21;;;;;;;6.53;1.70;;;16.70;99.90;;;;;;5049117;28;19999;-65
2021/08/26 12:19:49;;;;;;;5.80;1.77;;;16.60;99.90;;;;;;5048590;28;20037;-63
2021/08/26 12:22:16;;;;;;;8.65;2.05;;;16.60;99.90;;;;;;5049739;28;20444;-65
2021/08/26 12:24:57;;;;;;;6.63;1.83;;;16.80;99.90;;;;;;5050460;28;20382;-65
2021/08/26 12:27:25;;;;;;;10.95;2.15;;;16.70;99.90;;;;;;5050377;28;20045;-65
2021/08/26 12:29:51;;;;;;;3.92;1.65;;;16.70;99.90;;;;;;5031841;28;20385;-65
2021/08/26 12:32:38;;;;;;;9.65;2.33;;;16.60;99.90;;;;;;5050907;28;20570;-64
2021/08/26 12:35:25;;;;;;;6.57;2.10;;;16.70;99.90;;;;;;5053564;28;20036;-64
2021/08/26 12:37:52;;;;;;;6.22;2.20;;;16.70;99.90;;;;;;5029732;28;20051;-66
2021/08/26 12:40:18;;;;;;;7.00;2.80;;;16.50;99.90;;;;;;5050645;28;20048;-64
2021/08/26 12:43:00;;;;;;;;;;;16.40;99.90;;;;;;5051391;28;20067;-65
2021/08/26 12:45:26;;;;;;;7.05;2.47;;;16.30;99.90;;;;;;5046411;28;19924;-65
2021/08/26 12:47:52;;;;;;;;;;;16.30;99.90;;;;;;5048010;28;20563;-65
2021/08/26 12:50:32;;;;;;;10.75;2.90;;;16.20;99.90;;;;;;5051281;28;20392;-64
2021/08/26 12:52:59;;;;;;;7.25;2.10;;;16.20;99.90;;;;;;5048733;28;20385;-66
2021/08/26 12:55:25;;;;;;;9.02;2.45;;;16.10;99.90;;;;;;5050284;28;20144;-64
2021/08/26 12:58:10;;;;;;;7.65;2.70;;;16.10;99.90;;;;;;5047433;28;20037;-66
2021/08/26 13:00:38;;;;;;;8.07;2.47;;;16.20;99.90;;;;;;5046638;28;20048;-66
2021/08/26 13:03:05;;;;;;;8.80;2.45;;;16.10;99.90;;;;;;5048849;28;20040;-64
2021/08/26 13:05:42;;;;;;;7.82;2.70;;;16.10;99.90;;;;;;5049814;28;20056;-65
2021/08/26 13:08:08;;;;;;;12.55;2.55;;;16.10;99.90;;;;;;5047704;28;21623;-66
2021/08/26 13:10:33;;;;;;;;;;;16.10;99.90;;;;;;5049299;28;20055;-65
2021/08/26 13:13:17;;;;;;;10.88;2.65;;;16.00;99.90;;;;;;5049959;28;20357;-64
2021/08/26 13:15:46;;;;;;;11.27;3.30;;;16.10;99.90;;;;;;5049200;28;20428;-65